Time;durP1;ratioP1;P1;durP2;ratioP2;P2;SDS_P1;SDS_P2;PMS_P1;PMS_P2;Temp;Humidity;BMP_temperature;BMP_pressure;BME280_temperature;BME280_humidity;BME280_pressure;Samples;Min_cycle;Max_cycle;Signal;HPM_P1;HPM_P2
2023/06/13 00:00:44;;;;;;;6.00;5.40;;;25.50;31.90;;;;;;5095252;28;20437;-82
2023/06/13 00:03:13;;;;;;;6.60;5.13;;;25.50;32.10;;;;;;5102450;28;20438;-82
2023/06/13 00:05:45;;;;;;;6.67;5.30;;;25.50;32.00;;;;;;5106509;28;20440;-83
2023/06/13 00:08:17;;;;;;;10.60;5.13;;;25.40;32.30;;;;;;5100797;28;20444;-83
2023/06/13 00:10:46;;;;;;;6.50;5.30;;;25.30;32.30;;;;;;5103986;28;20439;-82
2023/06/13 00:13:15;;;;;;;9.30;5.10;;;25.20;32.20;;;;;;5105254;28;20470;-85
2023/06/13 00:15:48;;;;;;;5.10;4.67;;;25.20;32.20;;;;;;5098291;28;21015;-83
2023/06/13 00:18:17;;;;;;;8.23;4.40;;;25.30;32.50;;;;;;5098936;28;20452;-84
2023/06/13 00:20:46;;;;;;;6.47;4.97;;;25.20;32.10;;;;;;5098410;28;20419;-85
2023/06/13 00:23:15;;;;;;;11.73;5.23;;;25.00;32.30;;;;;;5097961;28;20461;-83
2023/06/13 00:25:43;;;;;;;8.23;4.80;;;25.00;32.60;;;;;;5098843;28;20964;-83
2023/06/13 00:28:11;;;;;;;6.60;5.33;;;25.10;32.30;;;;;;5101166;28;20455;-83
2023/06/13 00:30:39;;;;;;;5.70;5.20;;;25.00;32.30;;;;;;5106253;28;20502;-83
2023/06/13 00:33:09;;;;;;;7.27;4.90;;;24.90;32.20;;;;;;5112614;28;20475;-83
2023/06/13 00:35:37;;;;;;;5.47;4.97;;;24.90;32.10;;;;;;5100735;28;20461;-82
2023/06/13 00:38:06;;;;;;;11.37;7.57;;;24.80;32.50;;;;;;5100649;28;20509;-83
2023/06/13 00:40:35;;;;;;;13.27;6.83;;;24.80;32.40;;;;;;5101852;28;20443;-83
2023/06/13 00:43:03;;;;;;;9.93;6.00;;;24.60;32.50;;;;;;5095474;28;20473;-83
2023/06/13 00:45:33;;;;;;;9.80;5.87;;;24.60;32.20;;;;;;5110677;28;20443;-83
2023/06/13 00:48:03;;;;;;;10.00;6.40;;;24.70;32.60;;;;;;5107021;28;20440;-83
2023/06/13 00:50:33;;;;;;;13.40;7.33;;;24.60;32.40;;;;;;5106997;28;20490;-83
2023/06/13 00:53:03;;;;;;;6.40;5.80;;;24.60;32.70;;;;;;5109913;28;20434;-83
2023/06/13 00:55:32;;;;;;;7.80;6.00;;;24.60;32.60;;;;;;5101606;28;20817;-82
2023/06/13 00:58:06;;;;;;;13.90;6.40;;;24.60;32.20;;;;;;5101655;28;20447;-83
2023/06/13 01:00:35;;;;;;;7.57;6.37;;;24.40;32.20;;;;;;5101855;28;20432;-83
2023/06/13 01:03:07;;;;;;;8.27;5.60;;;24.40;32.40;;;;;;5102190;28;20842;-83
2023/06/13 01:05:35;;;;;;;11.07;6.60;;;24.50;32.50;;;;;;5107405;28;20431;-83
2023/06/13 01:08:06;;;;;;;10.60;6.60;;;24.30;32.60;;;;;;5104224;28;20455;-83
2023/06/13 01:10:36;;;;;;;9.33;6.30;;;24.20;32.50;;;;;;5101101;28;20424;-83
2023/06/13 01:13:08;;;;;;;8.03;6.53;;;24.20;32.60;;;;;;5106798;28;20423;-83
2023/06/13 01:15:39;;;;;;;10.60;6.40;;;24.20;32.60;;;;;;5101165;28;20438;-82
2023/06/13 01:18:07;;;;;;;9.80;6.57;;;24.10;33.00;;;;;;5104730;28;20440;-83
2023/06/13 01:20:35;;;;;;;7.10;5.40;;;24.10;32.90;;;;;;5103187;28;20502;-83
2023/06/13 01:23:14;;;;;;;12.90;6.13;;;24.00;33.00;;;;;;5104722;28;20475;-83
2023/06/13 01:25:52;;;;;;;8.97;6.00;;;23.90;32.80;;;;;;5098438;28;20486;-83
2023/06/13 01:28:22;;;;;;;8.80;5.73;;;23.90;32.90;;;;;;5115017;28;20428;-83
2023/06/13 01:30:50;;;;;;;6.57;5.53;;;23.90;32.80;;;;;;5099002;28;20444;-82
2023/06/13 01:33:18;;;;;;;10.33;5.50;;;23.80;32.80;;;;;;5104954;28;20465;-81
2023/06/13 01:35:47;;;;;;;9.67;5.90;;;23.80;33.20;;;;;;5100079;28;20464;-82
2023/06/13 01:38:15;;;;;;;8.07;5.70;;;23.80;33.00;;;;;;5097917;28;20506;-81
2023/06/13 01:40:44;;;;;;;6.83;5.20;;;23.60;33.20;;;;;;5104961;28;20453;-81
2023/06/13 01:43:12;;;;;;;11.60;5.43;;;23.60;33.50;;;;;;5109427;28;20468;-82
2023/06/13 01:45:41;;;;;;;8.37;5.67;;;23.40;33.20;;;;;;5097334;28;21005;-82
2023/06/13 01:48:11;;;;;;;6.03;5.07;;;23.30;33.80;;;;;;5098955;28;20433;-82
2023/06/13 01:50:46;;;;;;;8.90;5.60;;;23.40;33.40;;;;;;5099557;28;20436;-82
2023/06/13 01:53:19;;;;;;;7.20;6.10;;;23.40;33.40;;;;;;5109691;28;20473;-83
2023/06/13 01:55:52;;;;;;;7.47;5.90;;;23.40;33.50;;;;;;5108682;28;20506;-80
2023/06/13 01:58:23;;;;;;;7.63;5.53;;;23.40;33.50;;;;;;5105945;28;20519;-81
2023/06/13 02:00:55;;;;;;;6.13;5.53;;;23.20;33.20;;;;;;5108055;28;20448;-82
2023/06/13 02:03:24;;;;;;;7.10;5.77;;;23.20;33.30;;;;;;5111972;28;20463;-82
2023/06/13 02:05:53;;;;;;;7.23;5.93;;;23.20;33.30;;;;;;5097732;28;20812;-83
2023/06/13 02:08:21;;;;;;;11.50;6.10;;;23.10;33.20;;;;;;5104296;28;20437;-83
2023/06/13 02:10:49;;;;;;;7.03;5.43;;;23.00;33.60;;;;;;5097033;28;20492;-83
2023/06/13 02:13:20;;;;;;;10.17;5.47;;;23.00;33.40;;;;;;5105990;28;20464;-82
2023/06/13 02:15:48;;;;;;;7.63;5.47;;;22.90;33.30;;;;;;5099791;28;20465;-83
2023/06/13 02:18:18;;;;;;;8.23;5.67;;;22.90;33.30;;;;;;5104834;28;20444;-83
2023/06/13 02:20:46;;;;;;;6.67;5.70;;;23.00;33.00;;;;;;5096799;28;20437;-83
2023/06/13 02:23:15;;;;;;;7.20;5.40;;;23.00;33.00;;;;;;5105233;28;20465;-83
2023/06/13 02:25:45;;;;;;;10.33;5.90;;;23.00;33.00;;;;;;5097735;28;20455;-83
2023/06/13 02:28:14;;;;;;;7.47;5.03;;;22.90;32.90;;;;;;5095897;28;20479;-82
2023/06/13 02:30:42;;;;;;;8.03;5.10;;;22.90;33.00;;;;;;5096532;28;20416;-82
2023/06/13 02:33:13;;;;;;;7.33;5.40;;;22.90;33.20;;;;;;5105666;28;20467;-82
2023/06/13 02:35:42;;;;;;;7.10;5.40;;;22.80;33.00;;;;;;5107897;28;20464;-82
2023/06/13 02:38:11;;;;;;;6.47;5.70;;;22.80;33.10;;;;;;5107387;28;20467;-82
2023/06/13 02:40:39;;;;;;;8.60;5.07;;;22.80;33.50;;;;;;5099542;28;20546;-82
2023/06/13 02:43:07;;;;;;;6.93;5.17;;;22.80;33.10;;;;;;5099172;28;20539;-82
2023/06/13 02:45:35;;;;;;;7.00;5.53;;;22.80;32.90;;;;;;5099065;28;20437;-83
2023/06/13 02:48:03;;;;;;;10.40;4.93;;;22.70;32.80;;;;;;5101431;28;20415;-82
2023/06/13 02:50:31;;;;;;;10.13;5.10;;;22.70;32.40;;;;;;5108896;28;20488;-81
2023/06/13 02:53:00;;;;;;;6.23;5.07;;;22.60;32.50;;;;;;5111129;28;20463;-81
2023/06/13 02:55:29;;;;;;;6.50;4.80;;;22.50;32.50;;;;;;5111012;28;20447;-81
2023/06/13 02:57:57;;;;;;;8.50;5.40;;;22.60;32.70;;;;;;5105764;28;20501;-82
2023/06/13 03:00:26;;;;;;;6.97;5.13;;;22.60;33.00;;;;;;5107873;28;20466;-81
2023/06/13 03:02:57;;;;;;;5.30;4.80;;;22.60;32.90;;;;;;5102121;28;20473;-82
2023/06/13 03:05:26;;;;;;;12.30;5.20;;;22.50;33.00;;;;;;5108538;28;20544;-82
2023/06/13 03:07:56;;;;;;;7.60;4.57;;;22.50;32.90;;;;;;5102137;28;20500;-82
2023/06/13 03:10:26;;;;;;;6.57;4.80;;;22.50;32.80;;;;;;5101788;28;20441;-82
2023/06/13 03:12:54;;;;;;;5.83;5.07;;;22.40;32.80;;;;;;5109239;28;20476;-82
2023/06/13 03:15:22;;;;;;;8.13;4.77;;;22.40;33.50;;;;;;5108042;28;20467;-82
2023/06/13 03:17:51;;;;;;;5.40;4.90;;;22.50;33.40;;;;;;5099958;28;20476;-82
2023/06/13 03:20:20;;;;;;;5.40;4.90;;;22.50;32.90;;;;;;5104981;28;20478;-82
2023/06/13 03:22:54;;;;;;;9.43;4.77;;;22.50;33.20;;;;;;5104058;28;20439;-82
2023/06/13 03:25:23;;;;;;;9.43;5.10;;;22.60;33.20;;;;;;5099695;28;20429;-82
2023/06/13 03:27:52;;;;;;;8.87;5.20;;;22.50;32.80;;;;;;5100440;28;20428;-82
2023/06/13 03:30:20;;;;;;;17.53;4.57;;;22.60;32.60;;;;;;5102384;28;20520;-81
2023/06/13 03:32:48;;;;;;;5.27;4.77;;;22.60;32.70;;;;;;5106867;28;20449;-82
2023/06/13 03:35:17;;;;;;;5.53;4.73;;;22.50;32.30;;;;;;5098401;28;20445;-83
2023/06/13 03:37:45;;;;;;;8.13;4.50;;;22.50;32.80;;;;;;5102793;28;20463;-81
2023/06/13 03:40:13;;;;;;;15.83;10.30;;;22.40;33.00;;;;;;5106126;28;20444;-82
2023/06/13 03:42:42;;;;;;;26.10;16.73;;;22.50;33.50;;;;;;5101613;28;20467;-83
2023/06/13 03:45:15;;;;;;;11.17;6.63;;;22.40;33.60;;;;;;5113150;28;20451;-82
2023/06/13 03:47:43;;;;;;;6.13;5.53;;;22.50;33.40;;;;;;5107399;28;20441;-82
2023/06/13 03:50:12;;;;;;;9.30;6.10;;;22.40;33.00;;;;;;5105393;28;20440;-81
2023/06/13 03:52:40;;;;;;;8.20;5.00;;;22.30;32.80;;;;;;5107961;28;20456;-82
2023/06/13 03:55:10;;;;;;;7.17;5.03;;;22.50;33.00;;;;;;5105367;28;20436;-82
2023/06/13 03:57:38;;;;;;;9.77;6.20;;;22.50;32.80;;;;;;5108568;28;20468;-81
2023/06/13 04:00:09;;;;;;;8.13;6.20;;;22.40;32.60;;;;;;5109952;28;20444;-81
2023/06/13 04:02:39;;;;;;;5.90;5.30;;;22.50;32.80;;;;;;5100404;28;20461;-81
2023/06/13 04:05:08;;;;;;;14.23;5.77;;;22.50;32.50;;;;;;5110647;28;20450;-82
2023/06/13 04:07:36;;;;;;;8.10;5.50;;;22.50;32.60;;;;;;5098944;28;20464;-81
2023/06/13 04:10:05;;;;;;;9.27;5.87;;;22.60;32.90;;;;;;5108152;28;20449;-81
2023/06/13 04:12:33;;;;;;;11.20;5.43;;;22.50;32.80;;;;;;5106521;28;20839;-82
2023/06/13 04:15:00;;;;;;;11.20;6.10;;;22.30;32.90;;;;;;5108941;28;20443;-83
2023/06/13 04:17:29;;;;;;;7.20;5.20;;;22.50;33.30;;;;;;5107643;28;20468;-82
2023/06/13 04:19:58;;;;;;;11.60;5.70;;;22.50;33.10;;;;;;5108201;28;20440;-82
2023/06/13 04:22:26;;;;;;;7.00;5.57;;;22.60;33.30;;;;;;5111651;28;20452;-82
2023/06/13 04:24:54;;;;;;;8.17;5.00;;;22.60;33.60;;;;;;5107075;28;20414;-82
2023/06/13 04:27:27;;;;;;;8.43;5.40;;;22.60;33.30;;;;;;5114370;28;20453;-83
2023/06/13 04:29:55;;;;;;;7.53;5.73;;;22.40;33.50;;;;;;5104041;28;20441;-83
2023/06/13 04:32:27;;;;;;;9.40;5.10;;;22.50;33.90;;;;;;5111471;28;20452;-83
2023/06/13 04:34:58;;;;;;;9.03;6.10;;;22.50;33.40;;;;;;5107088;28;20966;-83
2023/06/13 04:37:30;;;;;;;10.03;6.00;;;22.50;33.80;;;;;;5111124;28;20507;-83
2023/06/13 04:39:58;;;;;;;13.80;5.13;;;22.60;34.00;;;;;;5102456;28;20445;-83
2023/06/13 04:42:28;;;;;;;6.90;4.70;;;22.50;33.50;;;;;;5103151;28;20518;-82
2023/06/13 04:44:57;;;;;;;8.80;4.87;;;22.40;33.90;;;;;;5109777;28;20419;-82
2023/06/13 04:47:26;;;;;;;10.90;4.80;;;22.40;33.70;;;;;;5111377;28;20445;-83
2023/06/13 04:50:06;;;;;;;8.40;4.80;;;22.50;33.70;;;;;;5117612;28;20449;-81
2023/06/13 04:52:41;;;;;;;7.20;4.80;;;22.60;34.00;;;;;;5103141;28;20548;-82
2023/06/13 04:55:09;;;;;;;5.00;4.50;;;22.80;33.50;;;;;;5108512;28;20450;-82
2023/06/13 04:57:37;;;;;;;5.97;4.40;;;22.80;33.70;;;;;;5103757;28;20468;-82
2023/06/13 05:00:09;;;;;;;4.50;4.10;;;22.90;33.80;;;;;;5101993;28;20423;-82
2023/06/13 05:02:41;;;;;;;5.17;4.63;;;22.90;34.00;;;;;;5107821;28;20494;-83
2023/06/13 05:05:10;;;;;;;9.80;4.33;;;23.00;34.10;;;;;;5113958;28;20444;-82
2023/06/13 05:07:40;;;;;;;6.07;4.30;;;23.00;34.50;;;;;;5106536;28;20419;-83
2023/06/13 05:10:12;;;;;;;7.50;4.20;;;23.00;34.30;;;;;;5105779;28;20497;-83
2023/06/13 05:12:47;;;;;;;10.93;4.43;;;22.90;34.80;;;;;;5107941;28;20486;-83
2023/06/13 05:15:16;;;;;;;7.47;3.90;;;23.10;34.40;;;;;;5108494;28;20518;-83
2023/06/13 05:17:45;;;;;;;5.70;3.73;;;23.10;34.60;;;;;;5104063;28;20483;-81
2023/06/13 05:20:14;;;;;;;6.30;4.17;;;23.20;35.30;;;;;;5108914;28;20515;-81
2023/06/13 05:22:45;;;;;;;7.80;3.70;;;23.40;35.10;;;;;;5101331;28;20461;-82
2023/06/13 05:25:13;;;;;;;6.53;3.87;;;23.10;35.20;;;;;;5103695;28;20449;-82
2023/06/13 05:27:43;;;;;;;12.40;3.67;;;23.20;35.80;;;;;;5103252;28;20468;-83
2023/06/13 05:30:11;;;;;;;5.23;3.90;;;23.30;35.70;;;;;;5112374;28;20448;-82
2023/06/13 05:32:44;;;;;;;17.00;3.80;;;23.10;35.50;;;;;;5108582;28;20466;-83
2023/06/13 05:35:13;;;;;;;6.67;3.37;;;23.10;35.30;;;;;;5108803;28;20490;-82
2023/06/13 05:37:44;;;;;;;3.33;3.07;;;23.10;35.50;;;;;;5100402;28;20492;-82
2023/06/13 05:40:14;;;;;;;8.30;4.00;;;23.10;35.60;;;;;;5100715;28;20441;-82
2023/06/13 05:42:43;;;;;;;3.93;3.53;;;23.10;36.60;;;;;;5100331;28;20447;-83
2023/06/13 05:45:11;;;;;;;10.20;4.30;;;23.10;36.50;;;;;;5100016;28;20419;-83
2023/06/13 05:47:43;;;;;;;6.00;3.50;;;23.10;36.00;;;;;;5119801;28;20410;-82
2023/06/13 05:50:16;;;;;;;5.67;3.30;;;23.00;36.30;;;;;;5121522;28;20949;-83
2023/06/13 05:52:45;;;;;;;3.73;3.43;;;23.00;36.70;;;;;;5110788;28;20512;-83
2023/06/13 05:55:15;;;;;;;5.53;3.27;;;23.10;36.50;;;;;;5106651;28;20457;-81
2023/06/13 05:57:45;;;;;;;10.77;5.07;;;23.20;36.70;;;;;;5102420;28;20464;-82
2023/06/13 06:00:14;;;;;;;6.47;5.30;;;23.30;36.80;;;;;;5100512;28;20441;-82
2023/06/13 06:02:44;;;;;;;5.70;5.20;;;23.30;36.70;;;;;;5108499;28;20449;-82
2023/06/13 06:05:15;;;;;;;5.43;4.17;;;23.20;36.90;;;;;;5111200;28;20441;-81
2023/06/13 06:07:43;;;;;;;5.77;4.70;;;23.40;37.20;;;;;;5114554;28;20463;-80
2023/06/13 06:10:12;;;;;;;5.70;3.60;;;23.50;37.10;;;;;;5105766;28;20444;-81
2023/06/13 06:12:44;;;;;;;4.67;3.80;;;23.60;36.90;;;;;;5100863;28;20489;-80
2023/06/13 06:15:13;;;;;;;7.63;4.40;;;23.60;36.80;;;;;;5113493;28;20451;-82
2023/06/13 06:17:41;;;;;;;21.30;12.50;;;23.50;37.00;;;;;;5100213;28;20577;-81
2023/06/13 06:20:10;;;;;;;16.10;9.73;;;23.60;37.20;;;;;;5105461;28;20410;-82
2023/06/13 06:22:39;;;;;;;14.13;7.80;;;23.70;37.00;;;;;;5106051;28;20517;-83
2023/06/13 06:25:12;;;;;;;9.57;5.53;;;23.70;36.70;;;;;;5108232;28;20453;-83
2023/06/13 06:27:47;;;;;;;14.27;5.50;;;23.80;36.40;;;;;;5110300;28;20411;-81
2023/06/13 06:30:15;;;;;;;7.73;4.20;;;23.80;37.20;;;;;;5107406;28;20433;-82
2023/06/13 06:32:44;;;;;;;6.43;3.93;;;24.00;36.90;;;;;;5100228;28;20555;-82
2023/06/13 06:35:14;;;;;;;7.13;3.20;;;24.00;36.70;;;;;;5107698;28;20437;-81
2023/06/13 06:37:43;;;;;;;5.73;3.50;;;23.90;36.70;;;;;;5107912;28;20474;-81
2023/06/13 06:40:11;;;;;;;3.50;3.20;;;24.10;37.00;;;;;;5108392;28;20440;-82
2023/06/13 06:42:40;;;;;;;3.50;2.60;;;24.20;36.90;;;;;;5109163;28;20464;-84
2023/06/13 06:45:10;;;;;;;4.23;2.90;;;24.30;36.60;;;;;;5108234;28;20458;-81
2023/06/13 06:47:38;;;;;;;4.47;2.83;;;24.50;36.80;;;;;;5108153;28;20444;-83
2023/06/13 06:50:07;;;;;;;4.60;2.47;;;24.80;36.40;;;;;;5107252;28;20916;-83
2023/06/13 06:52:36;;;;;;;13.17;2.80;;;24.80;36.20;;;;;;5110733;28;20457;-83
2023/06/13 06:55:04;;;;;;;9.23;3.83;;;25.10;36.40;;;;;;5104525;28;20445;-76
2023/06/13 06:57:32;;;;;;;4.03;3.73;;;25.50;35.70;;;;;;5097759;28;20437;-79
2023/06/13 07:00:01;;;;;;;11.30;4.07;;;25.80;35.10;;;;;;5107116;28;20415;-78
2023/06/13 07:02:37;;;;;;;10.93;4.80;;;25.90;34.70;;;;;;5100630;28;20464;-79
2023/06/13 07:05:06;;;;;;;6.10;4.10;;;26.10;34.50;;;;;;5095343;28;20429;-79
2023/06/13 07:07:35;;;;;;;4.50;4.10;;;26.20;34.30;;;;;;5093925;28;20466;-79
2023/06/13 07:10:03;;;;;;;5.40;4.20;;;26.30;34.20;;;;;;5094114;28;20415;-79
2023/06/13 07:12:32;;;;;;;4.83;4.00;;;26.40;34.10;;;;;;5103131;28;20452;-81
2023/06/13 07:15:00;;;;;;;4.07;3.67;;;26.50;34.20;;;;;;5106601;28;20440;-80
2023/06/13 07:17:30;;;;;;;4.80;3.57;;;26.60;34.20;;;;;;5106513;28;20452;-79
2023/06/13 07:19:59;;;;;;;3.20;2.90;;;26.70;34.00;;;;;;5104868;28;20444;-80
2023/06/13 07:22:28;;;;;;;4.27;3.30;;;26.70;33.90;;;;;;5101350;28;20522;-79
2023/06/13 07:24:56;;;;;;;3.33;2.90;;;26.80;33.70;;;;;;5106978;28;20973;-79
2023/06/13 07:27:24;;;;;;;3.33;3.03;;;26.80;33.50;;;;;;5102660;28;20418;-79
2023/06/13 07:29:53;;;;;;;3.03;2.83;;;27.00;33.80;;;;;;5099001;28;20419;-80
2023/06/13 07:32:21;;;;;;;3.07;2.90;;;27.00;33.90;;;;;;5109610;28;20489;-80
2023/06/13 07:34:49;;;;;;;3.03;2.73;;;27.10;33.80;;;;;;5105378;28;20449;-77
2023/06/13 07:37:34;;;;;;;2.70;2.50;;;27.20;33.70;;;;;;5100504;28;20422;-80
2023/06/13 07:40:04;;;;;;;8.40;3.00;;;27.30;33.50;;;;;;5094330;28;20500;-79
2023/06/13 07:42:33;;;;;;;5.67;2.93;;;27.30;33.50;;;;;;5093813;28;20476;-80
2023/06/13 07:45:01;;;;;;;4.37;3.03;;;27.40;33.50;;;;;;5096215;28;20427;-80
2023/06/13 07:47:30;;;;;;;5.30;3.50;;;27.50;33.60;;;;;;5095353;28;20499;-80
2023/06/13 07:49:58;;;;;;;3.57;3.23;;;27.60;33.50;;;;;;5101305;28;20467;-79
2023/06/13 07:52:26;;;;;;;3.23;2.93;;;27.60;33.50;;;;;;5102943;28;20832;-79
2023/06/13 07:54:56;;;;;;;3.17;2.70;;;27.70;33.40;;;;;;5096620;28;20471;-80
2023/06/13 07:57:24;;;;;;;3.30;3.10;;;27.70;33.40;;;;;;5100447;28;20470;-80
2023/06/13 07:59:58;;;;;;;3.40;3.07;;;27.80;33.60;;;;;;5099682;28;20514;-78
2023/06/13 08:02:31;;;;;;;4.43;3.90;;;27.90;33.60;;;;;;5106232;28;20464;-79
2023/06/13 08:04:59;;;;;;;4.47;3.17;;;28.00;33.70;;;;;;5094006;28;20451;-79
2023/06/13 08:07:29;;;;;;;4.43;4.03;;;28.10;33.70;;;;;;5106599;28;20761;-79
2023/06/13 08:09:58;;;;;;;3.50;3.13;;;28.20;33.60;;;;;;5096833;28;20403;-80
2023/06/13 08:12:26;;;;;;;4.70;3.93;;;28.30;33.60;;;;;;5107604;28;20431;-79
2023/06/13 08:14:55;;;;;;;4.90;3.50;;;28.30;33.50;;;;;;5099545;28;20411;-79
2023/06/13 08:17:24;;;;;;;3.60;3.40;;;28.50;33.40;;;;;;5111585;28;20453;-79
2023/06/13 08:19:55;;;;;;;5.90;3.60;;;28.50;33.10;;;;;;5107264;28;20474;-81
2023/06/13 08:22:27;;;;;;;3.53;3.23;;;28.60;33.20;;;;;;5100245;28;20531;-79
2023/06/13 08:24:55;;;;;;;4.40;3.07;;;28.70;33.00;;;;;;5093226;28;20436;-79
2023/06/13 08:27:25;;;;;;;3.30;3.10;;;28.70;33.20;;;;;;5092699;28;20437;-79
2023/06/13 08:29:53;;;;;;;3.33;3.03;;;28.90;33.20;;;;;;5099643;28;20419;-80
2023/06/13 08:32:21;;;;;;;3.50;3.20;;;28.90;33.20;;;;;;5094626;28;20465;-80
2023/06/13 08:34:49;;;;;;;4.40;3.33;;;29.00;32.80;;;;;;5098175;28;20431;-80
2023/06/13 08:37:17;;;;;;;4.53;2.57;;;29.00;32.90;;;;;;5101373;28;20487;-80
2023/06/13 08:39:45;;;;;;;3.10;2.73;;;29.10;33.00;;;;;;5097393;28;20457;-79
2023/06/13 08:42:13;;;;;;;4.93;2.90;;;29.30;32.90;;;;;;5102457;28;20466;-80
2023/06/13 08:44:43;;;;;;;2.90;2.70;;;29.40;33.00;;;;;;5095849;28;20448;-79
2023/06/13 08:47:12;;;;;;;5.33;2.97;;;29.40;32.80;;;;;;5095670;28;20445;-79
2023/06/13 08:50:00;;;;;;;3.80;3.20;;;29.50;32.70;;;;;;5101737;28;20444;-81
2023/06/13 08:52:30;;;;;;;6.67;3.67;;;29.60;32.70;;;;;;5100819;28;20557;-80
2023/06/13 08:54:59;;;;;;;3.60;3.30;;;29.70;32.60;;;;;;5096806;28;20416;-81
2023/06/13 08:57:49;;;;;;;6.00;3.63;;;29.80;32.50;;;;;;5099037;28;20408;-80
2023/06/13 09:00:19;;;;;;;3.67;3.00;;;29.90;32.30;;;;;;5097905;28;20431;-81
2023/06/13 09:02:48;;;;;;;3.50;3.20;;;29.90;32.20;;;;;;5100133;28;20488;-80
2023/06/13 09:05:18;;;;;;;6.40;3.53;;;30.10;32.20;;;;;;5099838;28;20456;-80
2023/06/13 09:07:47;;;;;;;3.30;3.00;;;30.20;32.10;;;;;;5105434;28;20452;-80
2023/06/13 09:10:15;;;;;;;5.43;3.33;;;30.20;32.00;;;;;;5100337;28;20448;-81
2023/06/13 09:12:45;;;;;;;3.90;3.33;;;30.30;31.80;;;;;;5100851;28;20447;-81
2023/06/13 09:15:13;;;;;;;6.03;3.47;;;30.40;31.80;;;;;;5107861;28;20443;-80
2023/06/13 09:17:43;;;;;;;3.90;3.60;;;30.40;31.70;;;;;;5099997;28;20536;-82
2023/06/13 09:20:12;;;;;;;3.87;3.57;;;30.60;31.60;;;;;;5098786;28;20439;-80
2023/06/13 09:22:40;;;;;;;6.13;3.80;;;30.60;31.30;;;;;;5100455;28;20460;-80
2023/06/13 09:25:09;;;;;;;7.87;3.40;;;30.70;31.20;;;;;;5106315;28;20449;-82
2023/06/13 09:27:55;;;;;;;4.03;3.50;;;30.80;31.10;;;;;;5101844;28;20497;-81
2023/06/13 09:30:25;;;;;;;5.50;3.40;;;30.90;31.10;;;;;;5097508;28;20443;-79
2023/06/13 09:32:54;;;;;;;4.30;3.20;;;31.00;30.70;;;;;;5101600;28;20509;-81
2023/06/13 09:35:23;;;;;;;5.40;3.13;;;31.10;30.70;;;;;;5102316;28;20527;-82
2023/06/13 09:38:12;;;;;;;4.83;2.87;;;31.10;30.50;;;;;;5100634;28;20427;-80
2023/06/13 09:40:40;;;;;;;8.23;3.97;;;31.20;30.40;;;;;;5097377;28;20443;-81
2023/06/13 09:43:08;;;;;;;3.03;2.80;;;31.30;30.30;;;;;;5102594;28;20438;-80
2023/06/13 09:45:36;;;;;;;4.70;3.53;;;31.40;30.00;;;;;;5096989;28;20512;-81
2023/06/13 09:48:06;;;;;;;4.60;3.10;;;31.50;30.00;;;;;;5097946;28;20416;-80
2023/06/13 09:50:36;;;;;;;3.37;2.87;;;31.60;30.00;;;;;;5096805;28;20467;-81
2023/06/13 09:53:05;;;;;;;6.37;2.93;;;31.60;29.60;;;;;;5097425;28;20895;-80
2023/06/13 09:55:33;;;;;;;7.40;2.57;;;31.70;29.40;;;;;;5097186;28;20455;-81
2023/06/13 09:58:01;;;;;;;3.47;3.10;;;31.80;29.50;;;;;;5097428;28;20479;-81
2023/06/13 10:00:32;;;;;;;8.10;3.10;;;31.90;29.40;;;;;;5098439;28;20499;-81
2023/06/13 10:03:01;;;;;;;3.47;3.27;;;31.90;29.20;;;;;;5101257;28;20468;-81
2023/06/13 10:05:45;;;;;;;3.23;3.03;;;32.10;29.00;;;;;;5099954;28;20441;-80
2023/06/13 10:08:13;;;;;;;5.67;3.30;;;32.10;28.80;;;;;;5099581;28;20479;-81
2023/06/13 10:10:41;;;;;;;7.37;3.47;;;32.10;28.30;;;;;;5098273;28;20508;-80
2023/06/13 10:13:13;;;;;;;5.00;3.40;;;32.20;28.40;;;;;;5103877;28;20551;-82
2023/06/13 10:15:43;;;;;;;6.30;3.40;;;32.30;28.50;;;;;;5103750;28;20463;-82
2023/06/13 10:18:13;;;;;;;5.93;3.00;;;32.40;28.40;;;;;;5107774;28;20538;-80
2023/06/13 10:20:41;;;;;;;3.50;3.20;;;32.50;28.50;;;;;;5098658;28;20435;-81
2023/06/13 10:23:11;;;;;;;3.47;3.17;;;32.60;28.40;;;;;;5108901;28;20482;-81
2023/06/13 10:25:39;;;;;;;3.50;3.20;;;32.70;28.10;;;;;;5098309;28;20441;-80
2023/06/13 10:28:11;;;;;;;4.20;3.80;;;32.70;28.10;;;;;;5096772;28;20486;-81
2023/06/13 10:30:45;;;;;;;5.00;3.50;;;32.80;28.10;;;;;;5096955;28;20469;-80
2023/06/13 10:33:41;;;;;;;4.97;3.50;;;32.80;28.20;;;;;;5099260;28;20876;-80
2023/06/13 10:36:17;;;;;;;3.43;3.23;;;33.00;28.00;;;;;;5096569;28;20449;-81
2023/06/13 10:39:17;;;;;;;3.90;3.37;;;33.00;27.80;;;;;;5104870;28;20439;-80
2023/06/13 10:41:53;;;;;;;4.90;4.40;;;33.10;27.50;;;;;;5097852;28;20501;-80
2023/06/13 10:44:24;;;;;;;8.20;4.50;;;33.20;27.50;;;;;;5097729;28;20528;-81
2023/06/13 10:46:52;;;;;;;5.20;4.70;;;33.30;27.50;;;;;;5095523;28;21047;-81
2023/06/13 10:49:21;;;;;;;10.70;4.03;;;33.30;27.30;;;;;;5095901;28;20500;-80
2023/06/13 10:51:49;;;;;;;4.40;3.70;;;33.40;27.10;;;;;;5096222;28;20441;-81
2023/06/13 10:54:19;;;;;;;4.27;3.93;;;33.40;27.10;;;;;;5095243;28;20507;-80
2023/06/13 10:56:47;;;;;;;5.53;4.10;;;33.50;27.20;;;;;;5095405;28;20436;-80
2023/06/13 10:59:15;;;;;;;4.20;3.80;;;33.50;27.20;;;;;;5095060;28;20528;-81
2023/06/13 11:01:44;;;;;;;7.50;3.60;;;33.60;27.30;;;;;;5095302;28;20561;-80
2023/06/13 11:04:13;;;;;;;3.90;3.00;;;33.70;27.00;;;;;;5107026;28;20492;-81
2023/06/13 11:06:42;;;;;;;3.60;3.20;;;33.70;26.90;;;;;;5093683;28;20489;-80
2023/06/13 11:09:16;;;;;;;4.00;3.37;;;33.80;26.70;;;;;;5102372;28;20472;-80
2023/06/13 11:11:47;;;;;;;3.40;3.20;;;33.90;26.80;;;;;;5098627;28;20464;-80
2023/06/13 11:14:16;;;;;;;3.90;3.70;;;34.00;26.80;;;;;;5100006;28;20472;-81
2023/06/13 11:16:45;;;;;;;4.83;3.67;;;34.00;26.80;;;;;;5099143;28;20496;-81
2023/06/13 11:19:15;;;;;;;3.70;3.40;;;34.00;26.30;;;;;;5110709;28;20539;-80
2023/06/13 11:21:46;;;;;;;3.50;3.20;;;34.10;26.50;;;;;;5107572;28;20487;-81
2023/06/13 11:24:18;;;;;;;3.50;3.30;;;34.20;26.50;;;;;;5101146;28;20503;-82
2023/06/13 11:26:48;;;;;;;3.37;3.27;;;34.30;26.40;;;;;;5096651;28;20506;-81
2023/06/13 11:29:16;;;;;;;4.80;3.50;;;34.30;26.30;;;;;;5102993;28;20499;-82
2023/06/13 11:31:44;;;;;;;4.13;3.83;;;34.30;26.20;;;;;;5103861;28;20440;-80
2023/06/13 11:34:15;;;;;;;4.03;3.73;;;34.40;26.50;;;;;;5093617;28;20472;-80
2023/06/13 11:36:46;;;;;;;5.23;3.90;;;34.50;26.30;;;;;;5094731;28;20449;-82
2023/06/13 11:39:16;;;;;;;3.73;3.43;;;34.60;26.40;;;;;;5098809;28;20428;-79
2023/06/13 11:41:44;;;;;;;10.73;3.43;;;34.60;26.30;;;;;;5092859;28;20956;-80
2023/06/13 11:44:14;;;;;;;5.43;3.27;;;34.60;26.30;;;;;;5096123;28;20476;-82
2023/06/13 11:46:43;;;;;;;3.83;3.63;;;34.70;26.30;;;;;;5094527;28;20448;-81
2023/06/13 11:49:15;;;;;;;3.87;3.67;;;34.70;26.10;;;;;;5098119;28;20921;-80
2023/06/13 11:51:44;;;;;;;5.43;3.80;;;34.80;25.90;;;;;;5104543;28;20425;-81
2023/06/13 11:54:15;;;;;;;3.30;3.07;;;34.90;25.70;;;;;;5102504;28;20540;-79
2023/06/13 11:56:52;;;;;;;3.73;3.30;;;34.90;25.60;;;;;;5094868;28;20498;-79
2023/06/13 11:59:25;;;;;;;3.70;3.40;;;35.00;25.60;;;;;;5105442;28;20440;-79
2023/06/13 12:01:54;;;;;;;5.00;3.00;;;35.00;25.60;;;;;;5100626;28;20520;-79
2023/06/13 12:04:23;;;;;;;4.53;3.53;;;35.00;25.70;;;;;;5098158;28;20464;-79
2023/06/13 12:06:52;;;;;;;7.00;2.90;;;35.00;25.60;;;;;;5095133;28;20452;-80
2023/06/13 12:09:20;;;;;;;3.30;3.00;;;35.10;25.50;;;;;;5098091;28;20459;-80
2023/06/13 12:11:49;;;;;;;7.60;2.77;;;35.10;25.30;;;;;;5091983;28;20447;-79
2023/06/13 12:14:19;;;;;;;3.20;2.90;;;35.20;25.40;;;;;;5099237;28;20489;-79
2023/06/13 12:16:51;;;;;;;4.30;2.67;;;35.20;25.50;;;;;;5093608;28;20425;-79
2023/06/13 12:19:20;;;;;;;4.60;3.10;;;35.20;25.20;;;;;;5094377;28;20445;-81
2023/06/13 12:21:50;;;;;;;5.47;4.53;;;35.30;25.20;;;;;;5101660;28;20495;-79
2023/06/13 12:24:19;;;;;;;5.77;4.70;;;35.30;25.10;;;;;;5105597;28;20499;-80
2023/06/13 12:26:48;;;;;;;4.10;3.90;;;35.30;25.10;;;;;;5099833;28;20445;-79
2023/06/13 12:29:17;;;;;;;3.70;3.50;;;35.40;24.90;;;;;;5107756;28;20443;-80
2023/06/13 12:31:47;;;;;;;3.83;3.50;;;35.40;24.50;;;;;;5097612;28;20440;-80
2023/06/13 12:34:26;;;;;;;3.17;2.90;;;35.40;24.60;;;;;;5099941;28;20466;-80
2023/06/13 12:36:58;;;;;;;4.80;3.03;;;35.40;24.60;;;;;;5106183;28;20795;-78
2023/06/13 12:39:30;;;;;;;3.00;2.80;;;35.50;24.70;;;;;;5104492;28;20449;-79
2023/06/13 12:42:00;;;;;;;2.80;2.70;;;35.60;24.90;;;;;;5104166;28;20465;-79
2023/06/13 12:44:30;;;;;;;3.30;2.90;;;35.60;25.00;;;;;;5100510;28;20444;-79
2023/06/13 12:46:59;;;;;;;2.93;2.73;;;35.60;25.00;;;;;;5099267;28;20436;-80
2023/06/13 12:49:28;;;;;;;2.60;2.40;;;35.60;24.90;;;;;;5113609;28;20447;-80
2023/06/13 12:51:57;;;;;;;2.57;2.47;;;35.70;24.70;;;;;;5110005;28;20467;-80
2023/06/13 12:54:25;;;;;;;3.33;2.53;;;35.50;24.10;;;;;;5105356;28;20474;-81
2023/06/13 12:56:54;;;;;;;2.80;2.60;;;35.60;24.50;;;;;;5103149;28;20444;-81
2023/06/13 12:59:32;;;;;;;2.30;2.20;;;35.70;25.00;;;;;;5106400;28;20444;-79